Impacts METAR Board INFO
IDs:

KDTW - Detroit Metro/Wayne, MI, US

Updated at: 0113 UTC 16 Dec 2017
Potential Impact None Slight Moderate High
Time15/13Z 15/14Z 15/15Z 15/16Z 15/17Z 15/18Z 15/19Z 15/20Z 15/21Z 15/22Z 15/23Z 16/00Z 16/01Z
VIS10 10 5 2 2 2 4 3 2 8 9 10 10
CIG35 60 35 35 25 35 30 30 25 40 50 50 55
CoverOVCOVCOVCOVCOVCOVCOVCOVCOVCOVCOVCOVCOVC
FltCatVFRVFRMVFRIFRIFRIFRMVFRMVFRIFRVFRVFRVFRVFR
WX-----SN-SN-SN-SN-SN-SN-SN-SN-SN----
WDir200200210210230230230250270250240240230
WSpd5 4 9 15 16 20 20 14 9 12 14 13 11
WGst-- -- -- -- -- -- 25 -- -- -- -- -- --
Raw hourly METARs
KDTW 151253Z 20005KT 10SM OVC035 M06/M12 A2992 RMK AO2 SLP144 T10611122 $
KDTW 151353Z 20004KT 10SM SCT035 OVC060 M06/M12 A2990 RMK AO2 SLP137 T10611117 $
KDTW 151453Z 21009KT 5SM -SN OVC035 M04/M10 A2989 RMK AO2 SNB43 SLP132 P0000 60000 T10391100 57017 $
KDTW 151553Z 21015KT 2SM -SN OVC035 M03/M08 A2987 RMK AO2 SLP123 P0000 T10281078 $
KDTW 151653Z 23016KT 2SM -SN BKN025 OVC035 M02/M08 A2983 RMK AO2 SFC VIS 2 1/2 SLP110 P0000 T10221078
KDTW 151753Z 23020KT 2SM -SN SCT020 OVC035 M02/M07 A2981 RMK AO2 SFC VIS 4 SLP103 P0000 60000 T10221072 11022 21067 58027
KDTW 151853Z 23020G25KT 4SM -SN SCT020 BKN030 OVC060 M02/M07 A2980 RMK AO2 SLP101 P0000 T10171072
KDTW 151953Z 25014KT 3SM -SN FEW022 BKN030 OVC060 M02/M07 A2981 RMK AO2 TWR VIS 4 SLP104 P0000 T10171067
KDTW 152053Z 27009KT 2SM -SN BKN025 OVC040 M02/M06 A2983 RMK AO2 SFC VIS 3 SLP110 P0000 60000 T10221061 51008
KDTW 152153Z 25012KT 8SM -SN SCT025 BKN040 OVC050 M01/M07 A2984 RMK AO2 SLP113 P0001 T10111072 $
KDTW 152253Z 24014KT 9SM -SN FEW045 OVC050 M02/M08 A2986 RMK AO2 SLP120 P0000 T10171078
KDTW 152353Z 24013KT 10SM OVC050 M02/M08 A2989 RMK AO2 SNE19 SLP128 P0000 60001 T10171083 11011 21022 53019
KDTW 160053Z 23011KT 10SM OVC055 M02/M09 A2990 RMK AO2 SLP134 T10221089